Time,TemperatureF,DewpointF,PressureIn,WindDirection,WindDirectionDegrees,WindSpeedMPH,WindSpeedGustMPH,Humidity,HourlyPrecipIn,Conditions,Clouds,dailyrainin,SolarRadiationWatts/m^2,SoftwareType,DateUTC
2013-07-20 00:02:00,65.0,64.0,-100.00,South,180,1.0,3.0,96,0.00,,,0.01,0.000000,,2013-07-20 04:02:00,
2013-07-20 00:44:00,64.0,63.0,-100.00,SSW,194,1.0,3.0,97,0.00,,,0.01,0.000000,,2013-07-20 04:44:00,
2013-07-20 00:52:00,64.0,63.0,-100.00,SSW,194,1.0,3.0,97,0.00,,,0.01,0.000000,,2013-07-20 04:52:00,
2013-07-20 01:02:00,64.0,63.0,-100.00,SSW,194,1.0,3.0,97,0.00,,,0.01,0.000000,,2013-07-20 05:02:00,
2013-07-20 01:32:00,65.0,65.0,-100.00,SSE,149,2.0,3.0,99,0.00,,,0.01,0.000000,,2013-07-20 05:32:00,
2013-07-20 01:52:00,65.0,65.0,-100.00,SSE,149,2.0,3.0,99,0.00,,,0.01,0.000000,,2013-07-20 05:52:00,
2013-07-20 02:01:00,65.0,65.0,-100.00,SSE,149,2.0,3.0,99,0.00,,,0.01,0.000000,,2013-07-20 06:01:00,
2013-07-20 02:32:00,65.0,65.0,-100.00,SSW,192,0.0,2.0,99,0.00,,,0.01,0.000000,,2013-07-20 06:32:00,
2013-07-20 02:43:00,65.0,65.0,-100.00,SSW,192,0.0,2.0,99,0.00,,,0.01,0.000000,,2013-07-20 06:43:00,
2013-07-20 02:52:00,65.0,65.0,-100.00,SSW,192,0.0,2.0,99,0.00,,,0.01,0.000000,,2013-07-20 06:52:00,
2013-07-20 03:01:00,65.0,65.0,-100.00,SSW,192,0.0,2.0,99,0.00,,,0.01,0.000000,,2013-07-20 07:01:00,
2013-07-20 03:33:00,65.0,65.0,-100.00,East,86,1.0,3.0,99,0.00,,,0.01,0.000000,,2013-07-20 07:33:00,
2013-07-20 03:44:00,65.0,65.0,-100.00,East,86,1.0,3.0,99,0.00,,,0.01,0.000000,,2013-07-20 07:44:00,
2013-07-20 03:54:00,65.0,65.0,-100.00,East,86,1.0,3.0,99,0.00,,,0.01,0.000000,,2013-07-20 07:54:00,
2013-07-20 04:02:00,65.0,65.0,-100.00,East,86,1.0,3.0,99,0.00,,,0.01,0.000000,,2013-07-20 08:02:00,
2013-07-20 04:32:00,65.0,65.0,-100.00,SW,226,1.0,3.0,100,0.00,,,0.01,0.000000,,2013-07-20 08:32:00,
2013-07-20 04:44:00,65.0,65.0,-100.00,SW,226,1.0,3.0,100,0.00,,,0.01,0.000000,,2013-07-20 08:44:00,
2013-07-20 04:52:00,65.0,65.0,-100.00,SW,226,1.0,3.0,100,0.00,,,0.01,0.000000,,2013-07-20 08:52:00,
2013-07-20 05:02:00,65.0,65.0,-100.00,SW,226,1.0,3.0,100,0.00,,,0.01,0.000000,,2013-07-20 09:02:00,
2013-07-20 05:33:00,65.0,65.0,-100.00,South,189,1.0,4.0,100,0.00,,,0.01,0.000000,,2013-07-20 09:33:00,
2013-07-20 05:43:00,65.0,65.0,-100.00,South,189,1.0,4.0,100,0.00,,,0.01,0.000000,,2013-07-20 09:43:00,
2013-07-20 05:53:00,65.0,65.0,-100.00,South,189,1.0,4.0,100,0.00,,,0.01,0.000000,,2013-07-20 09:53:00,
2013-07-20 06:01:00,65.0,65.0,-100.00,South,189,1.0,4.0,100,0.00,,,0.01,0.000000,,2013-07-20 10:01:00,
2013-07-20 06:32:00,64.0,64.0,-100.00,South,186,0.0,3.0,100,0.00,,,0.01,0.000000,,2013-07-20 10:32:00,
2013-07-20 06:42:00,64.0,64.0,-100.00,South,186,0.0,3.0,100,0.00,,,0.01,0.000000,,2013-07-20 10:42:00,
2013-07-20 06:52:00,64.0,64.0,-100.00,South,186,0.0,3.0,100,0.00,,,0.01,0.000000,,2013-07-20 10:52:00,
2013-07-20 07:02:00,64.0,64.0,-100.00,South,186,0.0,3.0,100,0.00,,,0.01,0.000000,,2013-07-20 11:02:00,
2013-07-20 07:43:00,64.0,64.0,-100.00,ENE,64,3.0,4.0,99,0.00,,,0.00,9.000000,,2013-07-20 11:43:00,
2013-07-20 07:52:00,64.0,64.0,-100.00,ENE,64,3.0,4.0,99,0.00,,,0.00,9.000000,,2013-07-20 11:52:00,
2013-07-20 08:01:00,64.0,64.0,-100.00,ENE,64,3.0,4.0,99,0.00,,,0.00,9.000000,,2013-07-20 12:01:00,
2013-07-20 08:52:00,68.0,67.0,-100.00,NE,38,1.0,3.0,98,0.00,,,0.00,96.000000,,2013-07-20 12:52:00,
2013-07-20 09:01:00,68.0,67.0,-100.00,NE,38,1.0,3.0,98,0.00,,,0.00,96.000000,,2013-07-20 13:01:00,
2013-07-20 09:43:00,73.0,69.0,-100.00,North,9,2.0,4.0,87,0.00,,,0.00,250.000000,,2013-07-20 13:43:00,
2013-07-20 09:53:00,73.0,69.0,-100.00,North,9,2.0,4.0,87,0.00,,,0.00,250.000000,,2013-07-20 13:53:00,
2013-07-20 10:02:00,73.0,69.0,-100.00,North,9,2.0,4.0,87,0.00,,,0.00,250.000000,,2013-07-20 14:02:00,
2013-07-20 10:53:00,76.0,68.0,-100.00,NNE,18,2.0,5.0,76,0.00,,,0.00,462.000000,,2013-07-20 14:53:00,
2013-07-20 11:01:00,76.0,68.0,-100.00,NNE,18,2.0,5.0,76,0.00,,,0.00,462.000000,,2013-07-20 15:01:00,
2013-07-20 11:33:00,78.0,69.0,-100.00,West,278,2.0,6.0,74,0.00,,,0.00,610.000000,,2013-07-20 15:33:00,
2013-07-20 11:44:00,78.0,69.0,-100.00,West,278,2.0,6.0,74,0.00,,,0.00,610.000000,,2013-07-20 15:44:00,
2013-07-20 11:53:00,78.0,69.0,-100.00,West,278,2.0,6.0,74,0.00,,,0.00,610.000000,,2013-07-20 15:53:00,
2013-07-20 12:01:00,78.0,69.0,-100.00,West,278,2.0,6.0,74,0.00,,,0.00,610.000000,,2013-07-20 16:01:00,
2013-07-20 12:32:00,79.0,68.0,-100.00,North,4,3.0,6.0,68,0.00,,,0.00,783.000000,,2013-07-20 16:32:00,
2013-07-20 12:44:00,79.0,68.0,-100.00,North,4,3.0,6.0,68,0.00,,,0.00,783.000000,,2013-07-20 16:44:00,
2013-07-20 12:52:00,79.0,68.0,-100.00,North,4,3.0,6.0,68,0.00,,,0.00,783.000000,,2013-07-20 16:52:00,
2013-07-20 13:02:00,79.0,68.0,-100.00,North,4,3.0,6.0,68,0.00,,,0.00,783.000000,,2013-07-20 17:02:00,
2013-07-20 14:38:00,73.0,66.0,-100.00,SSE,148,0.0,4.0,78,-99.99,,,0.00,196.000000,,2013-07-20 18:38:00,
2013-07-20 14:47:00,73.0,66.0,-100.00,SSE,148,0.0,4.0,78,-99.99,,,0.00,196.000000,,2013-07-20 18:47:00,
2013-07-20 14:59:00,73.0,66.0,-100.00,SSE,148,0.0,4.0,78,-99.99,,,0.00,196.000000,,2013-07-20 18:59:00,
2013-07-20 15:05:00,66.0,63.0,-100.00,South,170,2.0,7.0,89,0.00,,,0.00,127.000000,,2013-07-20 19:05:00,
2013-07-20 15:35:00,66.0,63.0,-100.00,South,170,2.0,7.0,89,0.00,,,0.00,127.000000,,2013-07-20 19:35:00,
2013-07-20 15:44:00,66.0,63.0,-100.00,South,170,2.0,7.0,89,0.00,,,0.00,127.000000,,2013-07-20 19:44:00,
2013-07-20 16:05:00,69.0,66.0,-100.00,NW,325,1.0,4.0,90,0.01,,,0.01,144.000000,,2013-07-20 20:05:00,
2013-07-20 16:35:00,69.0,66.0,-100.00,NW,325,1.0,4.0,90,0.01,,,0.01,144.000000,,2013-07-20 20:35:00,
2013-07-20 16:47:00,69.0,66.0,-100.00,NW,325,1.0,4.0,90,0.01,,,0.01,144.000000,,2013-07-20 20:47:00,
2013-07-20 16:58:00,69.0,66.0,-100.00,NW,325,1.0,4.0,90,0.01,,,0.01,144.000000,,2013-07-20 20:58:00,
2013-07-20 17:48:00,72.0,67.0,-100.00,East,95,4.0,5.0,85,0.00,,,0.01,281.000000,,2013-07-20 21:48:00,
2013-07-20 17:57:00,72.0,67.0,-100.00,East,95,4.0,5.0,85,0.00,,,0.01,281.000000,,2013-07-20 21:57:00,
2013-07-20 18:37:00,73.0,68.0,-100.00,SE,142,1.0,5.0,85,0.00,,,0.01,242.000000,,2013-07-20 22:37:00,
2013-07-20 18:50:00,73.0,68.0,-100.00,SE,142,1.0,5.0,85,0.00,,,0.01,242.000000,,2013-07-20 22:50:00,
2013-07-20 18:57:00,73.0,68.0,-100.00,SE,142,1.0,5.0,85,0.00,,,0.01,242.000000,,2013-07-20 22:57:00,
2013-07-20 19:05:00,70.0,66.0,-100.00,WSW,239,0.0,3.0,88,0.00,,,0.01,153.000000,,2013-07-20 23:05:00,
2013-07-20 19:40:00,70.0,66.0,-100.00,WSW,239,0.0,3.0,88,0.00,,,0.01,153.000000,,2013-07-20 23:40:00,
2013-07-20 19:46:00,70.0,66.0,-100.00,WSW,239,0.0,3.0,88,0.00,,,0.01,153.000000,,2013-07-20 23:46:00,
2013-07-20 20:05:00,68.0,66.0,-100.00,South,169,0.0,2.0,94,0.00,,,0.01,75.000000,,2013-07-21 00:05:00,
2013-07-20 20:45:00,68.0,66.0,-100.00,South,169,0.0,2.0,94,0.00,,,0.01,75.000000,,2013-07-21 00:45:00,
2013-07-20 20:56:00,68.0,66.0,-100.00,South,169,0.0,2.0,94,0.00,,,0.01,75.000000,,2013-07-21 00:56:00,
2013-07-20 21:05:00,65.0,64.0,-100.00,ENE,72,3.0,4.0,95,0.00,,,0.01,11.000000,,2013-07-21 01:05:00,
2013-07-20 21:37:00,65.0,64.0,-100.00,ENE,72,3.0,4.0,95,0.00,,,0.01,11.000000,,2013-07-21 01:37:00,
2013-07-20 21:49:00,-999.0,-99.9,-100.00,ENE,72,3.0,4.0,-999,-99.99,,,-99.99,11.000000,,2013-07-21 01:49:00,
2013-07-20 21:59:00,65.0,64.0,-100.00,ENE,72,3.0,4.0,95,0.00,,,0.01,11.000000,,2013-07-21 01:59:00,
2013-07-20 22:05:00,64.0,63.0,-100.00,SE,130,2.0,4.0,98,0.00,,,0.01,0.000000,,2013-07-21 02:05:00,
2013-07-20 22:47:00,64.0,63.0,-100.00,SE,130,2.0,4.0,98,0.00,,,0.01,0.000000,,2013-07-21 02:47:00,
2013-07-20 22:58:00,64.0,63.0,-100.00,SE,130,2.0,4.0,98,0.00,,,0.01,0.000000,,2013-07-21 02:58:00,
2013-07-20 23:37:00,64.0,64.0,-100.00,South,174,0.0,4.0,99,0.00,,,0.01,0.000000,,2013-07-21 03:37:00,
2013-07-20 23:47:00,64.0,64.0,-100.00,South,174,0.0,4.0,99,0.00,,,0.01,0.000000,,2013-07-21 03:47:00,